Wye, United Kingdom
Current Conditions -  °F | °C
As of 5:50 AM on Thursday 27 Nov 2014 (Local Time) from EGMC Reporting Station
Haze Haze  
Wind Chill: 52°   Ceiling: 3100
Heat Index: 52°   Visibility: 3mi
Dew Point: 50°   Wind: 7mph
Humidity: 94%   Direction: 150°SSE
Pressure: 29.62"   Gusts: NA
Location:  51.18°N, 0.94°E
Report Text: EGMC 270550Z 15006KT 5000 BR SCT004 BKN031 11/10 Q1003
Loading
Personal Weather Stations






























Interactive Weather Map New forecast layout! Learn more

10-Day Weather Forecast

Advertisements
Track Severe Weather on mobile